Time;durP1;ratioP1;P1;durP2;ratioP2;P2;SDS_P1;SDS_P2;PMS_P1;PMS_P2;Temp;Humidity;BMP_temperature;BMP_pressure;BME280_temperature;BME280_humidity;BME280_pressure;Samples;Min_cycle;Max_cycle;Signal;HPM_P1;HPM_P2
2022/03/29 00:00:42;;;;;;;33.80;22.08;;;;;;;18.76;39.89;101801.81;5051816;28;20044;-71
2022/03/29 00:03:08;;;;;;;39.55;23.85;;;;;;;18.83;39.88;101798.88;5052093;28;20519;-69
2022/03/29 00:05:35;;;;;;;37.35;23.05;;;;;;;18.94;39.65;101803.34;5051787;28;20132;-69
2022/03/29 00:08:03;;;;;;;39.15;24.48;;;;;;;18.65;40.36;101808.22;5051528;28;20118;-71
2022/03/29 00:10:28;;;;;;;34.40;22.13;;;;;;;18.37;40.39;101797.50;5052309;28;20033;-70
2022/03/29 00:12:54;;;;;;;33.20;21.25;;;;;;;18.19;41.14;101795.06;5051976;28;20048;-69
2022/03/29 00:15:21;;;;;;;37.00;22.58;;;;;;;18.82;40.16;101795.31;5051531;28;20049;-70
2022/03/29 00:17:47;;;;;;;39.60;23.63;;;;;;;18.81;39.96;101790.94;5052070;28;20492;-70
2022/03/29 00:20:13;;;;;;;43.88;23.13;;;;;;;18.67;40.22;101797.06;5052019;28;20045;-70
2022/03/29 00:22:39;;;;;;;37.10;20.55;;;;;;;18.46;40.35;101787.00;5051621;28;20033;-69
2022/03/29 00:25:05;;;;;;;40.63;22.48;;;;;;;18.60;40.67;101789.09;5051281;28;20114;-70
2022/03/29 00:27:30;;;;;;;38.42;22.45;;;;;;;19.02;39.32;101775.66;5050924;28;20056;-70
2022/03/29 00:29:56;;;;;;;32.53;21.85;;;;;;;18.60;40.62;101783.66;5050997;28;20040;-72
2022/03/29 00:32:21;;;;;;;37.45;20.38;;;;;;;17.24;42.90;101792.53;5051008;28;20104;-70
2022/03/29 00:34:47;;;;;;;31.92;20.30;;;;;;;17.75;42.10;101783.31;5051021;28;20029;-70
2022/03/29 00:37:12;;;;;;;30.08;19.00;;;;;;;17.24;43.02;101788.97;5051257;28;20045;-69
2022/03/29 00:39:37;;;;;;;30.20;19.67;;;;;;;17.11;42.98;101776.56;5050751;28;20128;-70
2022/03/29 00:42:04;;;;;;;30.95;18.55;;;;;;;16.93;43.57;101775.94;5051098;28;20115;-71
2022/03/29 00:44:31;;;;;;;32.95;18.67;;;;;;;17.51;42.33;101773.72;5050982;28;20086;-70
2022/03/29 00:46:58;;;;;;;35.58;20.17;;;;;;;17.75;41.94;101774.34;5051101;28;20063;-71
2022/03/29 00:49:24;;;;;;;30.30;20.15;;;;;;;17.89;41.31;101772.91;5051468;28;20041;-70
2022/03/29 00:51:49;;;;;;;28.73;19.00;;;;;;;17.65;42.11;101769.56;5050913;28;20037;-69
2022/03/29 00:54:15;;;;;;;30.98;18.77;;;;;;;16.65;43.82;101763.19;5050872;28;20041;-70
2022/03/29 00:56:40;;;;;;;30.17;19.15;;;;;;;17.61;42.16;101762.16;5051037;28;20040;-73
2022/03/29 00:59:06;;;;;;;37.17;20.05;;;;;;;17.97;41.03;101756.16;5050579;28;20098;-71
2022/03/29 01:01:31;;;;;;;31.08;18.80;;;;;;;18.18;40.26;101750.72;5051119;28;20029;-70
2022/03/29 01:03:57;;;;;;;28.65;18.45;;;;;;;18.06;40.63;101760.91;5050324;28;20101;-70
2022/03/29 01:06:23;;;;;;;34.15;19.75;;;;;;;17.64;41.34;101761.66;5050569;28;20283;-71
2022/03/29 01:08:49;;;;;;;32.38;18.88;;;;;;;17.65;41.55;101749.72;5050257;28;20033;-71
2022/03/29 01:11:15;;;;;;;33.35;18.67;;;;;;;17.53;41.54;101753.34;5047102;28;20058;-71
2022/03/29 01:13:41;;;;;;;28.77;18.23;;;;;;;17.55;41.74;101755.84;5049723;28;20037;-70
2022/03/29 01:18:53;;;;;;;30.30;19.25;;;;;;;17.51;41.90;101754.69;5050525;28;20148;-71
2022/03/29 01:21:22;;;;;;;29.83;18.55;;;;;;;14.87;47.46;101761.25;5054354;28;20033;-70
2022/03/29 01:23:49;;;;;;;33.13;20.25;;;;;;;16.80;43.66;101743.66;5054255;28;20507;-71
2022/03/29 01:26:16;;;;;;;39.17;20.88;;;;;;;17.23;41.84;101739.28;5051363;28;20060;-71
2022/03/29 01:28:42;;;;;;;35.70;20.02;;;;;;;17.24;42.34;101737.34;5053846;28;20512;-69
2022/03/29 01:31:09;;;;;;;36.05;19.67;;;;;;;17.51;41.68;101750.06;5054329;28;20041;-70
2022/03/29 01:33:35;;;;;;;38.22;20.27;;;;;;;16.51;43.91;101735.53;5051537;28;20033;-70
2022/03/29 01:36:02;;;;;;;34.85;19.60;;;;;;;17.43;41.81;101745.00;5054201;28;20554;-71
2022/03/29 01:38:28;;;;;;;38.45;19.88;;;;;;;17.43;41.32;101744.19;5054182;28;20455;-70
2022/03/29 01:41:00;;;;;;;37.33;20.52;;;;;;;17.57;41.07;101740.09;5054174;28;20119;-71
2022/03/29 01:43:25;;;;;;;34.35;20.25;;;;;;;17.72;40.66;101740.31;5054054;28;20226;-71
2022/03/29 01:45:51;;;;;;;37.17;20.38;;;;;;;17.43;40.81;101736.84;5053603;28;20120;-70
2022/03/29 01:48:16;;;;;;;36.92;20.23;;;;;;;17.97;40.18;101732.50;5053917;28;20061;-71
2022/03/29 01:50:41;;;;;;;34.42;19.45;;;;;;;17.59;40.80;101737.13;5053753;28;20043;-70
2022/03/29 01:53:07;;;;;;;34.42;19.13;;;;;;;18.00;39.34;101723.03;5051991;28;20408;-72
2022/03/29 01:55:32;;;;;;;32.50;18.70;;;;;;;17.96;39.45;101730.03;5054067;28;20083;-72
2022/03/29 01:57:58;;;;;;;32.85;18.08;;;;;;;17.74;40.26;101713.69;5053428;28;20354;-71
2022/03/29 02:00:34;;;;;;;35.03;20.48;;;;;;;17.90;39.73;101709.28;5053345;28;20071;-70
2022/03/29 02:03:04;;;;;;;35.72;19.30;;;;;;;17.73;40.23;101711.25;5051702;28;20025;-71
2022/03/29 02:05:31;;;;;;;33.60;18.35;;;;;;;17.89;39.80;101707.63;5053488;28;20424;-70
2022/03/29 02:07:57;;;;;;;35.40;20.27;;;;;;;17.54;40.66;101705.25;5052972;28;20025;-71
2022/03/29 02:10:23;;;;;;;30.75;19.73;;;;;;;17.56;40.52;101700.38;5053951;28;20024;-70
2022/03/29 02:12:50;;;;;;;35.60;19.10;;;;;;;17.78;40.25;101698.53;5053292;28;20382;-71
2022/03/29 02:15:15;;;;;;;35.28;19.23;;;;;;;17.47;40.85;101697.25;5047468;28;20112;-70
2022/03/29 02:17:44;;;;;;;35.03;20.80;;;;;;;17.39;40.89;101692.22;5053697;28;20033;-71
2022/03/29 02:20:10;;;;;;;36.75;20.15;;;;;;;17.84;40.00;101692.09;5053776;28;20378;-71
2022/03/29 02:22:36;;;;;;;32.63;18.85;;;;;;;18.04;39.09;101694.25;5054093;28;20048;-71
2022/03/29 02:25:02;;;;;;;33.72;19.42;;;;;;;18.04;39.25;101680.63;5053797;28;20421;-69
2022/03/29 02:27:27;;;;;;;40.28;20.52;;;;;;;17.55;40.08;101687.91;5053882;28;20052;-70
2022/03/29 02:29:53;;;;;;;37.65;19.75;;;;;;;17.44;40.76;101681.44;5053435;28;20386;-70
2022/03/29 02:32:18;;;;;;;36.40;19.88;;;;;;;17.59;39.82;101671.91;5053875;28;20366;-71
2022/03/29 02:34:45;;;;;;;35.67;20.30;;;;;;;17.48;40.13;101670.91;5053698;28;20025;-70
2022/03/29 02:37:11;;;;;;;43.50;20.73;;;;;;;16.80;42.47;101668.50;5054031;28;20029;-69
2022/03/29 02:39:37;;;;;;;41.63;22.00;;;;;;;17.39;41.07;101670.50;5053801;28;20063;-70
2022/03/29 02:42:03;;;;;;;43.75;21.85;;;;;;;17.71;39.78;101665.25;5053596;28;20041;-69
2022/03/29 02:44:28;;;;;;;42.97;20.48;;;;;;;17.92;39.74;101666.34;5053327;28;20436;-71
2022/03/29 02:46:56;;;;;;;39.10;19.88;;;;;;;18.13;39.04;101652.72;5053644;28;20029;-70
2022/03/29 02:49:21;;;;;;;42.45;21.50;;;;;;;17.58;40.13;101651.22;5054206;28;20104;-71
2022/03/29 02:51:47;;;;;;;38.33;20.52;;;;;;;17.68;39.95;101652.19;5053415;28;20556;-71
2022/03/29 02:54:14;;;;;;;34.00;20.70;;;;;;;17.19;41.16;101650.38;5053438;28;20044;-70
2022/03/29 02:56:39;;;;;;;36.33;21.60;;;;;;;17.41;40.37;101643.88;5053488;28;20033;-71
2022/03/29 02:59:05;;;;;;;44.03;21.75;;;;;;;17.55;39.85;101639.78;5052774;28;20041;-70
2022/03/29 03:01:30;;;;;;;38.85;21.92;;;;;;;17.49;40.42;101638.06;5053786;28;20648;-70
2022/03/29 03:03:57;;;;;;;36.28;21.05;;;;;;;17.42;40.22;101639.28;5052928;28;20032;-71
2022/03/29 03:06:22;;;;;;;41.15;21.27;;;;;;;17.49;39.86;101637.25;5053291;28;20029;-71
2022/03/29 03:08:48;;;;;;;43.80;22.38;;;;;;;17.06;41.25;101642.56;5052990;28;20029;-72
2022/03/29 03:11:13;;;;;;;41.47;22.33;;;;;;;17.52;39.90;101639.47;5053400;28;20036;-71
2022/03/29 03:13:39;;;;;;;38.00;21.48;;;;;;;17.51;40.26;101635.91;5053231;28;20162;-72
2022/03/29 03:16:05;;;;;;;38.83;22.77;;;;;;;17.51;40.31;101633.19;5053175;28;20106;-70
2022/03/29 03:18:30;;;;;;;43.67;22.55;;;;;;;17.75;39.54;101632.97;5052924;28;20124;-70
2022/03/29 03:20:55;;;;;;;44.33;24.92;;;;;;;17.93;39.56;101621.75;5052881;28;20033;-71
2022/03/29 03:23:21;;;;;;;40.47;22.40;;;;;;;17.71;39.49;101621.75;5051303;28;20029;-70
2022/03/29 03:25:48;;;;;;;44.03;23.83;;;;;;;17.50;39.93;101623.41;5050962;28;20041;-71
2022/03/29 03:28:14;;;;;;;45.88;24.83;;;;;;;16.42;42.57;101625.72;5053101;28;20045;-70
2022/03/29 03:30:39;;;;;;;45.33;24.10;;;;;;;17.28;40.84;101627.94;5052455;28;20060;-70
2022/03/29 03:33:04;;;;;;;49.20;25.27;;;;;;;16.43;42.71;101621.94;5052640;28;20377;-71
2022/03/29 03:35:30;;;;;;;44.58;23.15;;;;;;;17.40;40.36;101623.25;5052906;28;20037;-70
2022/03/29 03:37:55;;;;;;;45.25;24.85;;;;;;;17.92;39.16;101617.41;5052799;28;20039;-71
2022/03/29 03:40:21;;;;;;;46.40;23.33;;;;;;;17.50;40.33;101615.25;5053193;28;20037;-70
2022/03/29 03:42:46;;;;;;;48.95;25.00;;;;;;;17.40;40.11;101619.69;5050557;28;20047;-70
2022/03/29 03:45:11;;;;;;;44.22;23.77;;;;;;;17.65;39.79;101622.75;5052737;28;20040;-70
2022/03/29 03:47:38;;;;;;;44.75;24.60;;;;;;;17.43;39.88;101617.28;5052387;28;20036;-70
2022/03/29 03:50:05;;;;;;;42.28;22.52;;;;;;;17.72;39.51;101611.72;5052365;28;20048;-71
2022/03/29 03:52:30;;;;;;;47.10;24.73;;;;;;;17.74;39.52;101615.00;5052869;28;20021;-69
2022/03/29 03:54:56;;;;;;;44.80;22.77;;;;;;;17.02;40.60;101615.06;5052142;28;20089;-70
2022/03/29 03:57:22;;;;;;;40.75;23.40;;;;;;;17.82;39.11;101612.66;5051825;28;20118;-69
2022/03/29 03:59:48;;;;;;;43.20;23.33;;;;;;;17.71;38.53;101616.31;5052119;28;20116;-70
2022/03/29 04:02:14;;;;;;;48.03;24.15;;;;;;;17.48;39.32;101609.25;5050985;28;20063;-71
2022/03/29 04:04:40;;;;;;;44.40;23.35;;;;;;;16.99;40.88;101610.16;5045410;28;20033;-70
2022/03/29 04:07:06;;;;;;;49.47;24.95;;;;;;;17.55;39.52;101607.16;5032438;28;20032;-70
2022/03/29 04:09:35;;;;;;;47.78;25.55;;;;;;;17.74;39.29;101599.50;5031897;28;20030;-70
2022/03/29 04:12:02;;;;;;;46.63;22.83;;;;;;;17.47;39.47;101604.84;5031993;28;20029;-70
2022/03/29 04:14:27;;;;;;;40.72;21.30;;;;;;;17.45;39.52;101598.03;5031617;28;20033;-70
2022/03/29 04:16:53;;;;;;;41.17;23.30;;;;;;;17.67;38.61;101595.34;5047794;28;20036;-72
2022/03/29 04:19:18;;;;;;;41.92;23.02;;;;;;;17.52;39.32;101588.66;5052286;28;20024;-70
2022/03/29 04:21:44;;;;;;;47.30;23.13;;;;;;;17.48;39.57;101587.50;5051402;28;20147;-70
2022/03/29 04:24:09;;;;;;;46.25;23.88;;;;;;;17.24;39.60;101594.22;5051931;28;20033;-70
2022/03/29 04:26:35;;;;;;;43.63;23.10;;;;;;;17.15;39.69;101589.47;5051722;28;20044;-70
2022/03/29 04:29:00;;;;;;;43.63;23.08;;;;;;;17.72;38.81;101588.06;5052029;28;20087;-72
2022/03/29 04:31:26;;;;;;;49.78;24.20;;;;;;;17.39;39.11;101588.16;5051956;28;20033;-70
2022/03/29 04:33:51;;;;;;;44.58;22.83;;;;;;;17.43;39.46;101581.16;5050976;28;20037;-70
2022/03/29 04:36:16;;;;;;;46.25;24.67;;;;;;;17.02;40.07;101590.63;5031742;28;20048;-69
2022/03/29 04:38:43;;;;;;;47.10;24.33;;;;;;;17.61;38.94;101577.34;5031661;28;20168;-71
2022/03/29 04:41:09;;;;;;;49.70;24.63;;;;;;;17.16;40.07;101580.25;5031706;28;20038;-70
2022/03/29 04:43:34;;;;;;;44.78;22.92;;;;;;;17.03;40.54;101569.72;5032117;28;20040;-70
2022/03/29 04:46:01;;;;;;;43.35;22.73;;;;;;;16.98;40.44;101569.66;5031668;28;20094;-71
2022/03/29 04:48:27;;;;;;;41.22;22.75;;;;;;;17.12;40.28;101577.19;5031694;28;20065;-70
2022/03/29 04:50:52;;;;;;;39.03;21.13;;;;;;;17.51;39.26;101573.41;5048143;28;20098;-69
2022/03/29 04:53:18;;;;;;;40.75;22.48;;;;;;;17.62;39.26;101574.34;5051268;28;20116;-70
2022/03/29 04:55:44;;;;;;;42.08;22.77;;;;;;;16.92;40.62;101571.50;5051421;28;20041;-70
2022/03/29 04:58:10;;;;;;;38.80;22.38;;;;;;;17.36;39.42;101562.31;5051109;28;20079;-70
2022/03/29 05:00:37;;;;;;;44.42;23.55;;;;;;;17.44;39.16;101558.34;5051167;28;20057;-71
2022/03/29 05:03:03;;;;;;;45.72;22.25;;;;;;;17.16;39.83;101570.19;5051223;28;20037;-72
2022/03/29 05:05:28;;;;;;;39.97;21.70;;;;;;;17.41;39.56;101565.09;5045745;28;20083;-70
2022/03/29 05:07:54;;;;;;;43.72;23.17;;;;;;;16.96;40.51;101563.66;5031345;28;20032;-70
2022/03/29 05:10:19;;;;;;;43.90;23.73;;;;;;;17.32;39.79;101568.50;5031743;28;20034;-71
2022/03/29 05:12:47;;;;;;;44.25;23.77;;;;;;;16.86;40.11;101563.50;5031395;28;20033;-69
2022/03/29 05:15:15;;;;;;;42.83;21.65;;;;;;;16.58;41.13;101565.28;5031167;28;20418;-70
2022/03/29 05:17:42;;;;;;;48.70;23.83;;;;;;;16.16;42.12;101571.25;5030961;28;20124;-71
2022/03/29 05:20:08;;;;;;;38.10;22.35;;;;;;;15.72;43.22;101578.31;5031405;28;20034;-70
2022/03/29 05:22:42;;;;;;;43.58;23.88;;;;;;;16.36;41.42;101569.75;5032255;28;20087;-71
2022/03/29 05:25:07;;;;;;;41.95;22.05;;;;;;;17.09;40.01;101568.72;5049754;28;20044;-70
2022/03/29 05:27:33;;;;;;;43.72;22.88;;;;;;;17.09;39.81;101568.72;5049069;28;20582;-72
2022/03/29 05:29:59;;;;;;;39.35;22.50;;;;;;;17.03;39.88;101575.16;5048471;28;20404;-70
2022/03/29 05:32:24;;;;;;;38.35;22.70;;;;;;;17.37;39.33;101576.72;5049345;28;20052;-72
2022/03/29 05:34:50;;;;;;;34.58;20.40;;;;;;;16.99;39.92;101572.13;5049483;28;20029;-70
2022/03/29 05:37:15;;;;;;;35.33;22.42;;;;;;;17.26;39.30;101574.94;5050236;28;20047;-71
2022/03/29 05:39:43;;;;;;;30.88;18.67;;;;;;;16.69;40.23;101569.78;5050543;28;20033;-71
2022/03/29 05:42:09;;;;;;;38.15;20.95;;;;;;;17.03;39.49;101567.00;5051100;28;20071;-71
2022/03/29 05:44:35;;;;;;;31.17;20.50;;;;;;;16.90;39.67;101570.09;5051186;28;20510;-70
2022/03/29 05:49:44;;;;;;;32.13;19.92;;;;;;;17.29;38.89;101572.56;5051203;28;20059;-71
2022/03/29 05:52:10;;;;;;;33.88;21.38;;;;;;;17.18;38.79;101570.75;5049936;28;20108;-70
2022/03/29 05:54:35;;;;;;;37.80;21.00;;;;;;;16.85;39.82;101573.53;5050185;28;20045;-71
2022/03/29 05:57:02;;;;;;;33.28;20.25;;;;;;;17.06;39.42;101567.31;5050328;28;20052;-70
2022/03/29 05:59:27;;;;;;;32.95;19.45;;;;;;;16.78;39.72;101567.47;5049015;28;20098;-71
2022/03/29 06:01:53;;;;;;;35.20;20.25;;;;;;;16.82;39.78;101559.66;5042869;28;20052;-70
2022/03/29 06:04:22;;;;;;;34.55;19.58;;;;;;;16.94;39.33;101563.91;5048454;28;20110;-72
2022/03/29 06:06:49;;;;;;;37.65;20.23;;;;;;;16.42;40.23;101566.03;5053589;28;20028;-73
2022/03/29 06:09:14;;;;;;;32.55;20.30;;;;;;;16.38;40.52;101566.78;5051596;28;20066;-71
2022/03/29 06:11:40;;;;;;;34.55;20.83;;;;;;;16.65;40.09;101575.94;5046816;28;20403;-71
2022/03/29 06:14:05;;;;;;;32.20;19.30;;;;;;;17.33;38.79;101575.59;5052865;28;20109;-71
2022/03/29 06:16:31;;;;;;;32.63;19.83;;;;;;;16.92;39.48;101570.66;5053012;28;20041;-70
2022/03/29 06:18:56;;;;;;;30.63;19.63;;;;;;;17.03;39.63;101573.28;5050676;28;20059;-73
2022/03/29 06:21:24;;;;;;;32.15;20.85;;;;;;;16.95;39.69;101576.41;5052039;28;20523;-70
2022/03/29 06:23:49;;;;;;;33.33;20.40;;;;;;;16.63;40.07;101581.63;5054033;28;20039;-75
2022/03/29 06:26:14;;;;;;;31.55;20.40;;;;;;;16.88;39.36;101574.94;5054135;28;20116;-69
2022/03/29 06:28:40;;;;;;;31.35;20.02;;;;;;;17.05;39.36;101568.41;5053615;28;20476;-70
2022/03/29 06:31:07;;;;;;;33.03;19.63;;;;;;;16.57;39.46;101573.63;5054039;28;20081;-70
2022/03/29 06:33:33;;;;;;;31.70;20.83;;;;;;;17.21;38.74;101573.00;5053685;28;20045;-70
2022/03/29 06:35:58;;;;;;;31.05;20.27;;;;;;;17.32;38.62;101577.47;5053205;28;20399;-70
2022/03/29 06:38:23;;;;;;;35.55;21.38;;;;;;;17.57;38.00;101576.19;5051616;28;20041;-70
2022/03/29 06:40:50;;;;;;;38.72;22.05;;;;;;;17.06;38.54;101575.47;5053302;28;20036;-69
2022/03/29 06:43:16;;;;;;;33.42;21.05;;;;;;;17.65;37.80;101571.13;5054015;28;20087;-71
2022/03/29 06:45:41;;;;;;;34.40;20.55;;;;;;;17.16;38.62;101572.91;5053433;28;20033;-70
2022/03/29 06:48:07;;;;;;;34.90;18.23;;;;;;;17.02;38.59;101578.97;5053169;28;20111;-70
2022/03/29 06:50:33;;;;;;;31.65;19.98;;;;;;;16.98;38.44;101578.63;5053148;28;20032;-69
2022/03/29 06:52:59;;;;;;;32.97;19.30;;;;;;;16.82;39.02;101571.34;5051955;28;20048;-69
2022/03/29 06:55:25;;;;;;;32.53;20.83;;;;;;;17.29;38.12;101577.16;5053797;28;20024;-71
2022/03/29 06:57:51;;;;;;;35.30;21.45;;;;;;;17.26;38.35;101575.75;5052691;28;20041;-70
2022/03/29 07:00:17;;;;;;;30.35;19.42;;;;;;;16.60;39.65;101570.44;5052623;28;20044;-69
2022/03/29 07:02:44;;;;;;;33.35;20.25;;;;;;;17.18;38.46;101570.75;5052542;28;20108;-70
2022/03/29 07:05:09;;;;;;;35.90;22.70;;;;;;;17.15;38.18;101571.28;5052242;28;20047;-72
2022/03/29 07:07:35;;;;;;;32.10;18.98;;;;;;;17.23;38.54;101568.13;5052990;28;20558;-69
2022/03/29 07:12:53;;;;;;;38.78;20.67;;;;;;;17.19;38.76;101564.28;5052442;28;20048;-70
2022/03/29 07:15:19;;;;;;;31.90;20.42;;;;;;;16.07;40.74;101551.88;5052236;28;20052;-71
2022/03/29 07:17:45;;;;;;;34.05;19.83;;;;;;;16.13;41.17;101561.75;5052402;28;20029;-69
2022/03/29 07:20:11;;;;;;;31.50;20.70;;;;;;;17.19;38.77;101563.44;5052562;28;20117;-70
2022/03/29 07:22:37;;;;;;;45.10;21.48;;;;;;;17.51;37.88;101559.00;5052933;28;20044;-69
2022/03/29 07:25:03;;;;;;;30.00;20.35;;;;;;;17.54;38.25;101561.22;5052457;28;20030;-69
2022/03/29 07:27:29;;;;;;;31.45;20.50;;;;;;;17.84;37.25;101571.63;5052145;28;20064;-71
2022/03/29 07:29:54;;;;;;;33.15;20.38;;;;;;;17.38;37.87;101567.50;5051355;28;20499;-69
2022/03/29 07:32:21;;;;;;;40.83;20.00;;;;;;;16.68;39.11;101565.44;5053262;28;20462;-69
2022/03/29 07:34:46;;;;;;;32.47;19.98;;;;;;;16.64;39.50;101560.75;5053164;28;20028;-69
2022/03/29 07:37:12;;;;;;;37.45;20.90;;;;;;;16.93;39.21;101567.69;5053713;28;20146;-70
2022/03/29 07:39:38;;;;;;;35.05;20.08;;;;;;;17.48;37.78;101568.47;5052670;28;20496;-69
2022/03/29 07:42:04;;;;;;;32.50;19.40;;;;;;;17.44;37.83;101563.78;5052636;28;20037;-69
2022/03/29 07:44:29;;;;;;;31.75;19.02;;;;;;;17.73;37.11;101567.94;5051046;28;20039;-69
2022/03/29 07:46:55;;;;;;;32.50;19.75;;;;;;;17.96;36.29;101556.81;5051161;28;20040;-69
2022/03/29 07:49:20;;;;;;;38.47;21.00;;;;;;;18.16;36.57;101561.63;5053184;28;20042;-69
2022/03/29 07:51:45;;;;;;;33.45;19.80;;;;;;;18.24;36.25;101563.84;5052699;28;20063;-69
2022/03/29 07:54:11;;;;;;;41.78;20.98;;;;;;;17.54;37.60;101558.50;5052542;28;20047;-69
2022/03/29 07:56:36;;;;;;;34.25;20.45;;;;;;;18.13;36.17;101554.78;5052214;28;20198;-69
2022/03/29 07:59:02;;;;;;;36.78;19.35;;;;;;;18.24;35.71;101561.97;5051874;28;20103;-72
2022/03/29 08:01:29;;;;;;;32.75;20.02;;;;;;;18.31;35.71;101556.31;5052333;28;20035;-69
2022/03/29 08:03:55;;;;;;;33.60;20.08;;;;;;;18.02;36.50;101558.50;5051737;28;20124;-69
2022/03/29 08:06:21;;;;;;;32.72;18.42;;;;;;;18.63;35.66;101549.00;5051863;28;20036;-69
2022/03/29 08:08:47;;;;;;;33.22;19.88;;;;;;;17.86;36.86;101553.97;5052067;28;20029;-70
2022/03/29 08:11:13;;;;;;;28.38;18.70;;;;;;;17.71;37.62;101550.28;5051831;28;20384;-69
2022/03/29 08:13:38;;;;;;;28.52;18.73;;;;;;;18.30;36.56;101554.66;5052621;28;20107;-68
2022/03/29 08:16:04;;;;;;;27.75;17.90;;;;;;;17.77;37.67;101549.25;5051969;28;20049;-69
2022/03/29 08:18:31;;;;;;;39.55;19.85;;;;;;;18.72;35.68;101547.44;5052034;28;20045;-69
2022/03/29 08:20:57;;;;;;;33.95;19.58;;;;;;;18.01;36.51;101556.03;5052188;28;20094;-68
2022/03/29 08:23:22;;;;;;;32.22;19.95;;;;;;;17.62;37.53;101551.78;5051676;28;20041;-69
2022/03/29 08:25:48;;;;;;;35.65;19.45;;;;;;;17.75;37.34;101548.69;5051385;28;20044;-70
2022/03/29 08:28:14;;;;;;;31.73;19.77;;;;;;;18.30;36.29;101543.78;5051270;28;20029;-70
2022/03/29 08:30:41;;;;;;;32.42;19.13;;;;;;;18.11;36.83;101546.06;5051173;28;20025;-71
2022/03/29 08:33:07;;;;;;;33.88;18.85;;;;;;;17.70;37.37;101549.44;5051116;28;20526;-69
2022/03/29 08:35:34;;;;;;;33.63;18.77;;;;;;;18.35;35.98;101541.13;5051543;28;20055;-70
2022/03/29 08:38:00;;;;;;;32.25;18.80;;;;;;;18.71;35.89;101542.25;5051952;28;20098;-70
2022/03/29 08:40:28;;;;;;;37.33;20.33;;;;;;;18.04;36.72;101553.59;5051964;28;20476;-68
2022/03/29 08:42:57;;;;;;;34.20;19.88;;;;;;;18.70;35.83;101552.31;5051303;28;20049;-69
2022/03/29 08:45:30;;;;;;;30.33;19.65;;;;;;;18.25;36.23;101557.34;5051516;28;20460;-69
2022/03/29 08:47:58;;;;;;;35.40;19.10;;;;;;;18.61;35.65;101553.06;5051250;28;20467;-70
2022/03/29 08:50:27;;;;;;;32.88;18.58;;;;;;;18.51;36.11;101548.38;5051639;28;20044;-69
2022/03/29 08:52:53;;;;;;;30.80;17.77;;;;;;;18.06;36.69;101546.00;5051520;28;20037;-69
2022/03/29 08:55:20;;;;;;;32.17;18.80;;;;;;;18.61;35.09;101542.16;5051557;28;20108;-69
2022/03/29 08:57:49;;;;;;;33.03;19.25;;;;;;;19.05;35.05;101543.53;5051111;28;20512;-71
2022/03/29 09:00:16;;;;;;;32.03;18.48;;;;;;;19.45;34.49;101540.22;5051351;28;20095;-70
2022/03/29 09:02:41;;;;;;;34.58;18.80;;;;;;;19.80;34.16;101534.88;5051081;28;20053;-69
2022/03/29 09:05:12;;;;;;;31.23;18.88;;;;;;;19.63;34.63;101535.13;5051006;28;20037;-69
2022/03/29 09:07:59;;;;;;;32.60;19.95;;;;;;;20.28;32.90;101536.34;5051730;28;20033;-70
2022/03/29 09:10:51;;;;;;;32.53;18.15;;;;;;;18.89;34.64;101536.34;5051364;28;20112;-71
2022/03/29 09:13:26;;;;;;;31.00;18.13;;;;;;;19.67;33.50;101532.66;5051358;28;20182;-69
2022/03/29 09:15:54;;;;;;;33.47;19.17;;;;;;;19.07;34.62;101523.13;5051226;28;20045;-70
2022/03/29 09:18:20;;;;;;;31.17;18.23;;;;;;;19.60;34.37;101526.63;5051162;28;20052;-70
2022/03/29 09:20:47;;;;;;;34.40;18.55;;;;;;;19.54;33.98;101523.06;5051166;28;20068;-70
2022/03/29 09:23:15;;;;;;;30.48;18.70;;;;;;;19.09;34.72;101522.84;5050974;28;20029;-69
2022/03/29 09:25:47;;;;;;;35.25;19.13;;;;;;;19.54;34.80;101516.78;5051012;28;20640;-68
2022/03/29 09:28:14;;;;;;;35.08;19.58;;;;;;;19.93;33.29;101518.00;5051452;28;20096;-69
2022/03/29 09:30:53;;;;;;;34.35;20.00;;;;;;;20.38;33.35;101517.25;5050384;28;20043;-70
2022/03/29 09:33:31;;;;;;;31.98;19.17;;;;;;;20.51;32.92;101512.03;5051208;28;20040;-69
2022/03/29 09:36:07;;;;;;;33.92;19.83;;;;;;;20.78;32.30;101509.81;5049832;28;20036;-71
2022/03/29 09:38:37;;;;;;;30.98;19.85;;;;;;;19.49;33.15;101509.44;5050606;28;20086;-70
2022/03/29 09:41:06;;;;;;;34.47;20.30;;;;;;;19.26;33.96;101499.78;5053558;28;20037;-70
2022/03/29 09:43:34;;;;;;;37.08;21.13;;;;;;;18.61;35.60;101495.88;5055587;28;20048;-69
2022/03/29 09:46:01;;;;;;;33.10;19.95;;;;;;;19.61;33.94;101509.19;5054697;28;20574;-69
2022/03/29 09:48:28;;;;;;;30.50;19.25;;;;;;;20.06;33.38;101501.94;5054632;28;20071;-70
2022/03/29 09:51:08;;;;;;;36.63;19.67;;;;;;;20.13;32.92;101499.75;5054581;28;20501;-70
2022/03/29 09:53:38;;;;;;;33.42;20.10;;;;;;;19.01;34.35;101499.66;5054552;28;20036;-70
2022/03/29 09:56:10;;;;;;;37.70;18.57;;;;;;;18.68;35.68;101497.28;5054565;28;20531;-71
2022/03/29 09:58:36;;;;;;;28.58;18.70;;;;;;;19.57;34.04;101480.84;5054659;28;20053;-70
2022/03/29 10:01:03;;;;;;;33.88;20.45;;;;;;;19.75;33.65;101481.13;5054231;28;20052;-69
2022/03/29 10:03:33;;;;;;;30.58;19.50;;;;;;;20.92;31.54;101478.09;5054218;28;20033;-69
2022/03/29 10:06:03;;;;;;;31.83;18.83;;;;;;;20.69;32.17;101472.41;5054218;28;20037;-70
2022/03/29 10:11:17;;;;;;;33.95;19.80;;;;;;;20.27;33.15;101463.72;5054165;28;20060;-69
2022/03/29 10:13:43;;;;;;;33.92;19.30;;;;;;;20.22;33.31;101463.75;5054073;28;20032;-70
2022/03/29 10:16:12;;;;;;;40.53;21.00;;;;;;;20.74;31.89;101464.19;5053982;28;20421;-70
2022/03/29 10:18:39;;;;;;;33.75;21.13;;;;;;;21.34;31.13;101469.47;5053525;28;20032;-69
2022/03/29 10:21:05;;;;;;;32.00;19.33;;;;;;;21.31;30.91;101455.53;5053571;28;20041;-70
2022/03/29 10:23:31;;;;;;;30.65;19.02;;;;;;;20.99;31.72;101453.22;5052453;28;20025;-70
2022/03/29 10:25:59;;;;;;;31.30;19.05;;;;;;;20.29;32.67;101462.38;5053456;28;20508;-71
2022/03/29 10:28:26;;;;;;;33.97;20.38;;;;;;;21.30;31.41;101454.75;5053746;28;20051;-70
2022/03/29 10:30:51;;;;;;;32.30;19.40;;;;;;;20.44;32.10;101447.91;5050773;28;20511;-70
2022/03/29 10:33:25;;;;;;;33.55;20.33;;;;;;;20.91;31.58;101454.56;5053178;28;20022;-70
2022/03/29 10:36:02;;;;;;;33.75;20.42;;;;;;;21.21;30.47;101455.59;5053305;28;20036;-70
2022/03/29 10:38:43;;;;;;;29.13;18.38;;;;;;;21.32;30.98;101457.19;5053120;28;20044;-70
2022/03/29 10:41:27;;;;;;;30.35;19.00;;;;;;;21.23;30.94;101456.16;5053337;28;20052;-70
2022/03/29 10:43:55;;;;;;;29.30;18.17;;;;;;;21.91;30.01;101447.00;5050432;28;20056;-70
2022/03/29 10:46:24;;;;;;;28.95;19.00;;;;;;;22.48;29.27;101436.06;5053691;28;20495;-68
2022/03/29 10:49:20;;;;;;;32.28;19.98;;;;;;;21.47;29.71;101452.44;5053170;28;20021;-68
2022/03/29 10:51:57;;;;;;;29.52;18.75;;;;;;;21.35;30.17;101448.41;5051079;28;20044;-71
2022/03/29 10:54:25;;;;;;;31.95;18.17;;;;;;;21.63;30.40;101444.97;5053428;28;20041;-70
2022/03/29 10:57:03;;;;;;;31.80;18.58;;;;;;;22.92;28.80;101448.75;5053699;28;20412;-71
2022/03/29 10:59:30;;;;;;;35.00;18.85;;;;;;;22.37;29.08;101436.44;5049306;28;20092;-70
2022/03/29 11:02:06;;;;;;;36.45;19.70;;;;;;;22.02;29.80;101440.31;5049575;28;20067;-72
2022/03/29 11:04:31;;;;;;;33.55;19.15;;;;;;;21.28;30.88;101440.53;5050518;28;20425;-70
2022/03/29 11:07:06;;;;;;;32.78;20.48;;;;;;;22.26;29.90;101438.47;5050823;28;20053;-71
2022/03/29 11:09:33;;;;;;;30.45;19.40;;;;;;;22.36;29.15;101432.91;5050794;28;20044;-70
2022/03/29 11:11:58;;;;;;;33.65;20.30;;;;;;;22.13;29.63;101432.84;5050249;28;20033;-71
2022/03/29 11:14:30;;;;;;;33.67;19.65;;;;;;;23.36;28.13;101430.94;5050424;28;20040;-69
2022/03/29 11:17:11;;;;;;;32.75;21.48;;;;;;;21.60;30.49;101426.41;5049582;28;20041;-69
2022/03/29 11:19:48;;;;;;;30.92;19.42;;;;;;;22.58;28.79;101418.72;5050696;28;20059;-70